Time;durP1;ratioP1;P1;durP2;ratioP2;P2;SDS_P1;SDS_P2;PMS_P1;PMS_P2;Temp;Humidity;BMP_temperature;BMP_pressure;BME280_temperature;BME280_humidity;BME280_pressure;Samples;Min_cycle;Max_cycle;Signal;HPM_P1;HPM_P2
2021/03/15 00:00:40;;;;;;;5.80;2.20;;;6.80;99.90;;;;;;4973372;28;20632;-85
2021/03/15 00:03:07;;;;;;;3.97;1.50;;;6.80;99.90;;;;;;4972017;28;20217;-78
2021/03/15 00:05:34;;;;;;;2.70;1.33;;;6.90;99.90;;;;;;4973285;28;20225;-85
2021/03/15 00:08:01;;;;;;;9.93;1.73;;;6.80;99.90;;;;;;4972944;28;20233;-78
2021/03/15 00:10:27;;;;;;;8.97;3.07;;;6.80;99.90;;;;;;4973302;28;20670;-79
2021/03/15 00:12:54;;;;;;;4.60;1.70;;;6.70;99.90;;;;;;4973423;28;20205;-78
2021/03/15 00:15:23;;;;;;;5.10;1.77;;;6.70;99.90;;;;;;4972264;28;20220;-74
2021/03/15 00:17:50;;;;;;;11.13;2.63;;;6.70;99.90;;;;;;4973255;28;20205;-76
2021/03/15 00:20:18;;;;;;;9.60;2.93;;;6.60;99.90;;;;;;4972662;28;20712;-74
2021/03/15 00:22:47;;;;;;;7.33;2.43;;;6.60;99.90;;;;;;4973156;28;20696;-80
2021/03/15 00:25:16;;;;;;;6.57;1.83;;;6.60;99.90;;;;;;4972899;28;20293;-74
2021/03/15 00:27:43;;;;;;;11.53;2.73;;;6.70;99.90;;;;;;4972429;28;20237;-78
2021/03/15 00:30:12;;;;;;;5.57;1.97;;;6.70;99.90;;;;;;4972255;28;20213;-74
2021/03/15 00:32:39;;;;;;;7.70;1.97;;;6.70;99.90;;;;;;4972542;28;20720;-77
2021/03/15 00:35:08;;;;;;;8.63;2.10;;;6.80;99.90;;;;;;4972102;28;20205;-81
2021/03/15 00:37:35;;;;;;;6.00;1.63;;;6.90;99.90;;;;;;4972142;28;20271;-80
2021/03/15 00:40:04;;;;;;;3.70;1.87;;;6.90;99.90;;;;;;4971970;28;20209;-75
2021/03/15 00:42:30;;;;;;;3.80;1.73;;;7.00;99.90;;;;;;4972075;28;20209;-78
2021/03/15 00:44:56;;;;;;;7.70;1.77;;;7.10;99.90;;;;;;4971748;28;20213;-75
2021/03/15 00:47:23;;;;;;;4.40;1.63;;;7.10;99.90;;;;;;4972273;28;20780;-78
2021/03/15 00:49:49;;;;;;;5.37;1.93;;;7.10;99.90;;;;;;4972114;28;20698;-79
2021/03/15 00:52:16;;;;;;;10.33;2.33;;;7.10;99.90;;;;;;4971348;28;20685;-78
2021/03/15 00:54:42;;;;;;;6.93;1.57;;;7.20;99.90;;;;;;4972602;28;20378;-80
2021/03/15 00:57:10;;;;;;;10.90;2.47;;;7.20;99.90;;;;;;4972061;28;20674;-81
2021/03/15 00:59:36;;;;;;;5.77;1.93;;;7.20;99.90;;;;;;4972492;28;20677;-82
2021/03/15 01:02:03;;;;;;;5.37;2.03;;;7.20;99.90;;;;;;4971990;28;20594;-79
2021/03/15 01:04:29;;;;;;;7.93;1.50;;;7.10;99.90;;;;;;4972566;28;20213;-82
2021/03/15 01:06:56;;;;;;;4.83;2.10;;;7.10;99.90;;;;;;4971656;28;20229;-86
2021/03/15 01:09:23;;;;;;;4.63;1.73;;;7.20;99.90;;;;;;4972438;28;20210;-78
2021/03/15 01:11:49;;;;;;;8.10;2.23;;;7.30;99.90;;;;;;4971660;28;20210;-79
2021/03/15 01:14:17;;;;;;;8.63;1.97;;;7.30;99.90;;;;;;4972219;28;20206;-79
2021/03/15 01:16:43;;;;;;;5.47;1.80;;;7.30;99.90;;;;;;4972958;28;20239;-85
2021/03/15 01:19:10;;;;;;;4.17;1.80;;;7.40;99.90;;;;;;4971849;28;20273;-81
2021/03/15 01:21:36;;;;;;;10.37;2.67;;;7.40;99.90;;;;;;4972292;28;20209;-80
2021/03/15 01:24:03;;;;;;;5.47;1.80;;;7.40;99.90;;;;;;4971569;28;20209;-82
2021/03/15 01:26:29;;;;;;;8.10;2.13;;;7.40;99.90;;;;;;4971689;28;20217;-79
2021/03/15 01:28:56;;;;;;;4.07;1.87;;;7.30;99.90;;;;;;4971652;28;20302;-77
2021/03/15 01:31:23;;;;;;;4.73;1.73;;;7.40;99.90;;;;;;4972479;28;20209;-80
2021/03/15 01:33:49;;;;;;;2.77;1.17;;;7.40;99.90;;;;;;4972391;28;20209;-78
2021/03/15 01:36:16;;;;;;;3.87;1.83;;;7.40;99.90;;;;;;4972316;28;20209;-84
2021/03/15 01:38:42;;;;;;;4.67;2.13;;;7.40;99.90;;;;;;4972015;28;20229;-75
2021/03/15 01:41:09;;;;;;;7.97;2.90;;;7.40;99.90;;;;;;4971212;28;20570;-83
2021/03/15 01:43:36;;;;;;;7.80;2.30;;;7.30;99.90;;;;;;4972342;28;20201;-78
2021/03/15 01:46:03;;;;;;;4.93;1.70;;;7.20;99.90;;;;;;4971384;28;20214;-74
2021/03/15 01:48:30;;;;;;;3.30;1.80;;;7.20;99.90;;;;;;4971488;28;20311;-75
2021/03/15 01:50:57;;;;;;;17.20;2.97;;;7.30;99.90;;;;;;4971239;28;20213;-72
2021/03/15 01:53:24;;;;;;;8.97;2.50;;;7.30;99.90;;;;;;4971088;28;20673;-74
2021/03/15 01:55:51;;;;;;;4.27;2.87;;;7.20;99.90;;;;;;4971561;28;20280;-74
2021/03/15 01:58:18;;;;;;;4.27;1.87;;;7.30;99.90;;;;;;4971971;28;20221;-80
2021/03/15 02:00:45;;;;;;;7.07;2.10;;;7.20;99.90;;;;;;4971979;28;20205;-83
2021/03/15 02:03:11;;;;;;;9.23;2.43;;;7.10;99.90;;;;;;4971290;28;20220;-81
2021/03/15 02:05:41;;;;;;;4.70;2.30;;;7.10;99.90;;;;;;4971481;28;20256;-78
2021/03/15 02:08:08;;;;;;;5.40;2.20;;;7.20;99.90;;;;;;4971008;28;20717;-76
2021/03/15 02:10:35;;;;;;;7.10;2.50;;;7.20;99.90;;;;;;4971420;28;20206;-80
2021/03/15 02:13:28;;;;;;;8.23;2.30;;;7.20;99.90;;;;;;4971520;28;20571;-77
2021/03/15 02:16:06;;;;;;;8.03;2.10;;;7.30;99.90;;;;;;4971417;28;20205;-80
2021/03/15 02:18:45;;;;;;;11.63;4.00;;;7.30;99.90;;;;;;4971634;28;20209;-78
2021/03/15 02:21:46;;;;;;;5.00;2.63;;;7.30;99.90;;;;;;4959567;28;20740;-82
2021/03/15 02:24:20;;;;;;;11.93;2.27;;;7.30;99.90;;;;;;4970938;28;20206;-80
2021/03/15 02:27:07;;;;;;;10.30;2.30;;;7.40;99.90;;;;;;4973715;28;20225;-78
2021/03/15 02:30:10;;;;;;;12.53;2.67;;;7.30;99.90;;;;;;4976041;28;20216;-80
2021/03/15 02:33:18;;;;;;;3.20;1.87;;;7.30;99.90;;;;;;4976488;28;20209;-75
2021/03/15 02:35:46;;;;;;;6.50;2.20;;;7.30;99.90;;;;;;4975206;28;20213;-79
2021/03/15 02:38:14;;;;;;;4.13;1.77;;;7.40;99.90;;;;;;4974831;28;20221;-79
2021/03/15 02:40:44;;;;;;;7.60;2.10;;;7.40;99.90;;;;;;4974511;28;20214;-78
2021/03/15 02:43:15;;;;;;;5.53;3.27;;;7.40;99.90;;;;;;4974180;28;20209;-79
2021/03/15 02:45:44;;;;;;;6.27;2.53;;;7.50;99.90;;;;;;4975167;28;20248;-80
2021/03/15 02:48:13;;;;;;;6.83;2.83;;;7.50;99.90;;;;;;4974197;28;21138;-82
2021/03/15 02:50:42;;;;;;;4.33;1.57;;;7.50;99.90;;;;;;4974815;28;20225;-79
2021/03/15 02:53:14;;;;;;;5.33;1.80;;;7.50;99.90;;;;;;4974165;28;20209;-81
2021/03/15 02:55:42;;;;;;;4.03;2.17;;;7.50;99.90;;;;;;4974716;28;20252;-78
2021/03/15 02:58:10;;;;;;;7.03;2.13;;;7.50;99.90;;;;;;4973778;28;20210;-74
2021/03/15 03:00:38;;;;;;;7.93;2.17;;;7.50;99.90;;;;;;4974823;28;20209;-76
2021/03/15 03:03:06;;;;;;;6.83;2.30;;;7.50;99.90;;;;;;4974017;28;20205;-82
2021/03/15 03:05:33;;;;;;;5.73;1.97;;;7.50;99.90;;;;;;4974168;28;20669;-74
2021/03/15 03:08:01;;;;;;;4.93;3.07;;;7.50;99.90;;;;;;4973434;28;20229;-78
2021/03/15 03:10:30;;;;;;;7.40;2.90;;;7.50;99.90;;;;;;4973790;28;20209;-77
2021/03/15 03:12:58;;;;;;;8.40;1.80;;;7.60;99.90;;;;;;4974148;28;20587;-78
2021/03/15 03:15:30;;;;;;;4.23;1.97;;;7.50;99.90;;;;;;4974180;28;20236;-76
2021/03/15 03:18:01;;;;;;;11.40;2.00;;;7.50;99.90;;;;;;4973925;28;20210;-80
2021/03/15 03:20:28;;;;;;;5.40;2.03;;;7.50;99.90;;;;;;4973658;28;20694;-77
2021/03/15 03:22:58;;;;;;;6.30;1.50;;;7.50;99.90;;;;;;4973425;28;20206;-77
2021/03/15 03:25:26;;;;;;;6.10;2.00;;;7.50;99.90;;;;;;4973822;28;20220;-78
2021/03/15 03:27:55;;;;;;;4.90;2.57;;;7.50;99.90;;;;;;4973536;28;20234;-76
2021/03/15 03:30:25;;;;;;;5.93;1.70;;;7.50;99.90;;;;;;4973902;28;20585;-75
2021/03/15 03:32:53;;;;;;;13.67;3.30;;;7.50;99.90;;;;;;4973692;28;20241;-78
2021/03/15 03:35:19;;;;;;;5.47;2.07;;;7.50;99.90;;;;;;4974030;28;20209;-73
2021/03/15 03:37:46;;;;;;;5.43;1.80;;;7.50;99.90;;;;;;4973689;28;20220;-78
2021/03/15 03:40:14;;;;;;;3.70;1.57;;;7.50;99.90;;;;;;4973767;28;20218;-76
2021/03/15 03:42:41;;;;;;;4.13;2.13;;;7.50;99.90;;;;;;4976397;28;20268;-73
2021/03/15 03:45:10;;;;;;;7.90;2.80;;;7.50;99.90;;;;;;4974674;28;20217;-79
2021/03/15 03:47:38;;;;;;;4.63;2.90;;;7.50;99.90;;;;;;4973794;28;20233;-78
2021/03/15 03:50:06;;;;;;;7.13;2.27;;;7.50;99.90;;;;;;4972890;28;20214;-77
2021/03/15 03:52:37;;;;;;;6.73;2.03;;;7.50;99.90;;;;;;4973441;28;20214;-76
2021/03/15 03:55:09;;;;;;;6.77;1.70;;;7.50;99.90;;;;;;4971567;28;20202;-75
2021/03/15 03:57:38;;;;;;;4.40;1.63;;;7.50;99.90;;;;;;4959828;28;20210;-74
2021/03/15 04:00:08;;;;;;;6.37;1.93;;;7.50;99.90;;;;;;4973357;28;20220;-77
2021/03/15 04:02:44;;;;;;;5.73;1.33;;;7.40;99.90;;;;;;4976777;28;20216;-82
2021/03/15 04:05:18;;;;;;;2.07;1.17;;;7.50;99.90;;;;;;4972633;28;20212;-79
2021/03/15 04:07:48;;;;;;;7.07;1.83;;;7.50;99.90;;;;;;4973541;28;20240;-76
2021/03/15 04:10:15;;;;;;;4.93;2.33;;;7.50;99.90;;;;;;4972903;28;20213;-76
2021/03/15 04:12:49;;;;;;;4.60;2.17;;;7.50;99.90;;;;;;4973243;28;20205;-76
2021/03/15 04:15:17;;;;;;;5.37;1.97;;;7.50;99.90;;;;;;4972601;28;20217;-74
2021/03/15 04:17:46;;;;;;;5.43;1.47;;;7.50;99.90;;;;;;4973047;28;20583;-77
2021/03/15 04:20:18;;;;;;;7.97;1.73;;;7.50;99.90;;;;;;4972549;28;20268;-73
2021/03/15 04:22:50;;;;;;;4.73;2.23;;;7.50;99.90;;;;;;4973394;28;20231;-81
2021/03/15 04:25:19;;;;;;;2.00;1.30;;;7.50;99.90;;;;;;4972874;28;20553;-73
2021/03/15 04:27:50;;;;;;;6.00;1.73;;;7.50;99.90;;;;;;4972963;28;20237;-74
2021/03/15 04:30:19;;;;;;;4.03;1.47;;;7.50;99.90;;;;;;4972957;28;20209;-74
2021/03/15 04:32:52;;;;;;;3.27;1.37;;;7.50;99.90;;;;;;4972769;28;20211;-77
2021/03/15 04:35:20;;;;;;;3.67;1.63;;;7.60;99.90;;;;;;4972570;28;20669;-76
2021/03/15 04:37:49;;;;;;;5.70;1.97;;;7.50;99.90;;;;;;4972607;28;20222;-73
2021/03/15 04:40:17;;;;;;;4.60;1.40;;;7.40;99.90;;;;;;4972778;28;20216;-74
2021/03/15 04:42:44;;;;;;;4.30;1.13;;;7.40;99.90;;;;;;4972907;28;20213;-74
2021/03/15 04:45:12;;;;;;;5.80;1.60;;;7.40;99.90;;;;;;4972168;28;20595;-73
2021/03/15 04:47:39;;;;;;;7.63;2.07;;;7.40;99.90;;;;;;4972303;28;20772;-75
2021/03/15 04:50:10;;;;;;;4.00;1.20;;;7.40;99.90;;;;;;4971411;28;20213;-76
2021/03/15 04:52:38;;;;;;;1.90;1.20;;;7.40;99.90;;;;;;4972345;28;20209;-86
2021/03/15 04:55:06;;;;;;;1.93;1.00;;;7.50;99.90;;;;;;4972312;28;20740;-78
2021/03/15 04:57:33;;;;;;;7.13;1.10;;;7.50;99.90;;;;;;4973203;28;20213;-83
2021/03/15 05:00:02;;;;;;;3.93;1.17;;;7.60;99.90;;;;;;4972101;28;20210;-77
2021/03/15 05:02:29;;;;;;;3.40;1.23;;;7.50;99.90;;;;;;4972527;28;20224;-84
2021/03/15 05:04:57;;;;;;;4.00;1.80;;;7.50;99.90;;;;;;4971767;28;20213;-84
2021/03/15 05:07:26;;;;;;;6.57;1.57;;;7.50;99.90;;;;;;4972905;28;20244;-82
2021/03/15 05:09:53;;;;;;;4.53;1.37;;;7.50;99.90;;;;;;4971982;28;20213;-81
2021/03/15 05:12:21;;;;;;;2.60;2.00;;;7.50;99.90;;;;;;4972579;28;20276;-81
2021/03/15 05:14:48;;;;;;;9.03;1.83;;;7.60;99.90;;;;;;4972520;28;20700;-78
2021/03/15 05:17:15;;;;;;;3.73;1.23;;;7.60;99.90;;;;;;4971987;28;20210;-81
2021/03/15 05:19:42;;;;;;;3.30;1.10;;;7.60;99.90;;;;;;4972028;28;20236;-82
2021/03/15 05:22:11;;;;;;;3.67;1.73;;;7.60;99.90;;;;;;4971665;28;20213;-81
2021/03/15 05:24:40;;;;;;;5.97;1.90;;;7.50;99.90;;;;;;4972352;28;20213;-80
2021/03/15 05:27:09;;;;;;;3.67;0.73;;;7.50;99.90;;;;;;4971359;28;20232;-81
2021/03/15 05:29:36;;;;;;;1.73;0.87;;;7.60;99.90;;;;;;4972028;28;20209;-83
2021/03/15 05:32:05;;;;;;;11.57;1.20;;;7.60;99.90;;;;;;4971243;28;20214;-85
2021/03/15 05:34:32;;;;;;;3.27;1.10;;;7.60;99.90;;;;;;4971622;28;20638;-85
2021/03/15 05:36:59;;;;;;;3.13;1.20;;;7.60;99.90;;;;;;4971784;28;20217;-86
2021/03/15 05:39:26;;;;;;;4.50;1.13;;;7.70;99.90;;;;;;4971455;28;20209;-81
2021/03/15 05:42:24;;;;;;;3.43;1.30;;;7.70;99.90;;;;;;4971348;28;20209;-78
2021/03/15 05:45:06;;;;;;;2.83;1.00;;;7.70;99.90;;;;;;4960638;28;20201;-81
2021/03/15 05:47:57;;;;;;;2.23;1.20;;;7.70;99.90;;;;;;4972910;28;20323;-82
2021/03/15 05:50:55;;;;;;;8.77;2.07;;;7.60;99.90;;;;;;4973953;28;20212;-87
2021/03/15 05:53:57;;;;;;;6.37;1.27;;;7.60;99.90;;;;;;4960910;28;20217;-86
2021/03/15 05:56:41;;;;;;;6.23;1.73;;;7.50;99.90;;;;;;4972443;28;20213;-83
2021/03/15 05:59:40;;;;;;;5.53;1.60;;;7.50;99.90;;;;;;4974318;28;20209;-76
2021/03/15 06:02:37;;;;;;;3.47;1.27;;;7.40;99.90;;;;;;4971872;28;20206;-78
2021/03/15 06:05:19;;;;;;;9.93;1.50;;;7.40;99.90;;;;;;4975764;28;20317;-83
2021/03/15 06:07:48;;;;;;;2.00;0.87;;;7.30;99.90;;;;;;4976637;28;20617;-79
2021/03/15 06:10:22;;;;;;;3.97;0.90;;;7.20;99.90;;;;;;4976652;28;20292;-85
2021/03/15 06:12:53;;;;;;;2.60;0.87;;;7.10;99.90;;;;;;4975640;28;20674;-80
2021/03/15 06:15:27;;;;;;;6.23;1.90;;;7.10;99.90;;;;;;4975274;28;20307;-75
2021/03/15 06:17:56;;;;;;;8.23;1.60;;;7.10;99.90;;;;;;4974655;28;20267;-77
2021/03/15 06:20:23;;;;;;;2.87;1.33;;;7.10;99.90;;;;;;4975217;28;20210;-80
2021/03/15 06:22:50;;;;;;;5.10;1.50;;;7.20;99.90;;;;;;4975660;28;20212;-84
2021/03/15 06:25:21;;;;;;;2.00;1.00;;;7.10;99.90;;;;;;4973725;28;20209;-87
2021/03/15 06:27:49;;;;;;;4.43;1.47;;;7.10;99.90;;;;;;4975573;28;20287;-75
2021/03/15 06:30:17;;;;;;;3.63;1.90;;;7.00;99.90;;;;;;4974876;28;20264;-85
2021/03/15 06:32:44;;;;;;;4.37;1.83;;;7.00;99.90;;;;;;4975321;28;20209;-87
2021/03/15 06:35:13;;;;;;;1.77;1.40;;;7.00;99.90;;;;;;4974805;28;20678;-82
2021/03/15 06:37:40;;;;;;;3.53;1.63;;;7.10;99.90;;;;;;4974769;28;20225;-77
2021/03/15 06:40:07;;;;;;;3.23;1.07;;;7.10;99.90;;;;;;4974632;28;20217;-78
2021/03/15 06:42:34;;;;;;;3.10;2.03;;;7.30;99.90;;;;;;4974753;28;20202;-79
2021/03/15 06:45:01;;;;;;;4.90;1.27;;;7.50;99.90;;;;;;4974390;28;20280;-78
2021/03/15 06:47:28;;;;;;;8.47;1.43;;;7.60;99.90;;;;;;4974919;28;20241;-79
2021/03/15 06:49:55;;;;;;;2.90;1.20;;;7.80;99.90;;;;;;4974849;28;20209;-81
2021/03/15 06:52:22;;;;;;;2.83;1.10;;;7.90;99.90;;;;;;4974484;28;20220;-78
2021/03/15 06:54:59;;;;;;;4.13;1.73;;;8.00;99.90;;;;;;4974902;28;20205;-77
2021/03/15 06:57:29;;;;;;;2.80;1.40;;;7.90;99.90;;;;;;4974996;28;20209;-75
2021/03/15 06:59:57;;;;;;;4.27;1.20;;;7.80;99.90;;;;;;4961272;28;20232;-79
2021/03/15 07:02:27;;;;;;;5.53;1.70;;;7.80;99.90;;;;;;4974659;28;20213;-79
2021/03/15 07:04:54;;;;;;;8.00;1.47;;;8.20;99.90;;;;;;4974198;28;20236;-78
2021/03/15 07:07:26;;;;;;;6.13;1.67;;;8.40;99.90;;;;;;4974525;28;20743;-77
2021/03/15 07:09:54;;;;;;;1.93;1.03;;;8.40;99.90;;;;;;4974272;28;20264;-74
2021/03/15 07:12:22;;;;;;;3.07;1.20;;;8.40;99.90;;;;;;4974016;28;20209;-79
2021/03/15 07:14:50;;;;;;;4.10;1.27;;;8.40;99.90;;;;;;4974636;28;20273;-76
2021/03/15 07:17:27;;;;;;;5.17;1.20;;;8.30;99.90;;;;;;4974144;28;20213;-82
2021/03/15 07:19:55;;;;;;;6.07;1.40;;;8.20;99.90;;;;;;4973817;28;20202;-83
2021/03/15 07:22:24;;;;;;;6.53;1.50;;;8.20;99.90;;;;;;4974339;28;20575;-79
2021/03/15 07:25:06;;;;;;;3.97;1.37;;;8.30;99.90;;;;;;4974512;28;20260;-78
2021/03/15 07:27:34;;;;;;;5.17;1.10;;;8.30;99.90;;;;;;4974374;28;20613;-80
2021/03/15 07:30:45;;;;;;;7.87;2.20;;;8.30;99.90;;;;;;4973506;28;20205;-82
2021/03/15 07:33:20;;;;;;;3.87;1.23;;;8.30;99.90;;;;;;4970318;28;20221;-79
2021/03/15 07:35:50;;;;;;;2.77;1.60;;;8.20;99.90;;;;;;4974124;28;20263;-78
2021/03/15 07:38:31;;;;;;;5.87;1.83;;;8.20;99.90;;;;;;4974273;28;20221;-77
2021/03/15 07:40:58;;;;;;;5.23;1.93;;;8.20;99.90;;;;;;4973592;28;20204;-79
2021/03/15 07:43:27;;;;;;;6.17;2.20;;;8.10;99.90;;;;;;4975254;28;20252;-82
2021/03/15 07:45:54;;;;;;;9.77;2.67;;;7.90;99.90;;;;;;4977830;28;20256;-83
2021/03/15 07:48:22;;;;;;;3.67;2.00;;;7.80;99.90;;;;;;4978602;28;20673;-74
2021/03/15 07:51:00;;;;;;;5.93;2.40;;;7.80;99.90;;;;;;4977350;28;20213;-74
2021/03/15 07:53:43;;;;;;;4.10;1.27;;;7.80;99.90;;;;;;4978691;28;20212;-80
2021/03/15 07:56:11;;;;;;;5.33;1.77;;;8.00;99.90;;;;;;4976859;28;20210;-77
2021/03/15 07:58:40;;;;;;;3.23;1.93;;;8.10;99.90;;;;;;4978385;28;20217;-77
2021/03/15 08:01:10;;;;;;;7.00;2.00;;;8.20;99.90;;;;;;4980696;28;20213;-78
2021/03/15 08:03:38;;;;;;;4.40;2.00;;;8.30;99.90;;;;;;4980307;28;20206;-80
2021/03/15 08:06:06;;;;;;;6.13;1.60;;;8.20;99.90;;;;;;4976663;28;20304;-80
2021/03/15 08:08:33;;;;;;;8.07;2.80;;;8.30;99.90;;;;;;4973412;28;20622;-87
2021/03/15 08:11:02;;;;;;;3.70;1.80;;;8.30;99.90;;;;;;4972947;28;20206;-88
2021/03/15 08:13:30;;;;;;;7.00;2.00;;;8.50;99.90;;;;;;4974355;28;20686;-78
2021/03/15 08:15:59;;;;;;;12.00;2.03;;;8.60;99.90;;;;;;4975014;28;20206;-86
2021/03/15 08:18:27;;;;;;;4.03;2.20;;;9.00;99.90;;;;;;4972089;28;20705;-79
2021/03/15 08:21:00;;;;;;;3.77;1.43;;;9.40;99.90;;;;;;4972076;28;20686;-81
2021/03/15 08:23:30;;;;;;;4.90;1.90;;;9.60;99.90;;;;;;4972273;28;20210;-80
2021/03/15 08:26:04;;;;;;;5.83;2.23;;;9.50;99.90;;;;;;4972340;28;20646;-75
2021/03/15 08:28:32;;;;;;;2.53;1.70;;;9.10;99.90;;;;;;4971259;28;20232;-74
2021/03/15 08:31:02;;;;;;;5.23;1.50;;;9.00;99.90;;;;;;4968928;28;20276;-75
2021/03/15 08:33:29;;;;;;;5.97;1.80;;;9.40;99.90;;;;;;4965715;28;20305;-77
2021/03/15 08:35:57;;;;;;;3.23;1.67;;;9.70;99.90;;;;;;4972098;28;20206;-73
2021/03/15 08:38:31;;;;;;;8.73;2.07;;;9.80;99.90;;;;;;4972645;28;20275;-74
2021/03/15 08:41:04;;;;;;;3.20;1.47;;;9.60;99.90;;;;;;4971531;28;20205;-80
2021/03/15 08:43:42;;;;;;;1.63;1.43;;;9.40;99.90;;;;;;4970507;28;20605;-74
2021/03/15 08:46:13;;;;;;;7.17;2.47;;;9.30;99.90;;;;;;4969444;28;20209;-76
2021/03/15 08:48:54;;;;;;;3.27;1.67;;;9.20;99.90;;;;;;4972021;28;20237;-75
2021/03/15 08:51:47;;;;;;;5.30;2.03;;;9.10;99.90;;;;;;4971786;28;20215;-79
2021/03/15 08:54:19;;;;;;;2.03;1.20;;;9.00;99.90;;;;;;4969469;28;20233;-76
2021/03/15 08:56:48;;;;;;;8.87;2.13;;;9.00;99.90;;;;;;4964563;28;20209;-80
2021/03/15 08:59:15;;;;;;;7.97;2.13;;;9.10;99.90;;;;;;4970033;28;20568;-77
2021/03/15 09:02:05;;;;;;;6.03;1.87;;;9.20;99.90;;;;;;4971798;28;20202;-78
2021/03/15 09:04:40;;;;;;;4.03;1.93;;;9.40;99.90;;;;;;4963628;28;20736;-78
2021/03/15 09:07:29;;;;;;;4.43;2.27;;;9.60;99.90;;;;;;4971525;28;20243;-75
2021/03/15 09:09:56;;;;;;;4.00;1.50;;;9.60;99.90;;;;;;4971020;28;20214;-80
2021/03/15 09:12:24;;;;;;;4.47;1.53;;;9.80;99.90;;;;;;4972036;28;20209;-79
2021/03/15 09:14:55;;;;;;;3.03;1.33;;;9.60;99.90;;;;;;4969252;28;20229;-78
2021/03/15 09:17:33;;;;;;;5.67;1.63;;;10.00;99.90;;;;;;4971941;28;20279;-76
2021/03/15 09:20:19;;;;;;;6.67;1.43;;;10.30;99.90;;;;;;4971344;28;20205;-79
2021/03/15 09:22:46;;;;;;;2.90;1.60;;;11.80;99.90;;;;;;4966994;28;20208;-81
2021/03/15 09:25:22;;;;;;;3.80;1.70;;;11.40;99.90;;;;;;4968159;28;20214;-77
2021/03/15 09:27:54;;;;;;;8.37;2.33;;;11.00;99.90;;;;;;4970798;28;20228;-77
2021/03/15 09:30:24;;;;;;;6.90;2.27;;;10.80;99.90;;;;;;4969403;28;20684;-76
2021/03/15 09:32:52;;;;;;;6.17;1.80;;;11.00;99.90;;;;;;4970558;28;20205;-77
2021/03/15 09:35:28;;;;;;;3.67;1.40;;;11.30;99.90;;;;;;4969003;28;20205;-76
2021/03/15 09:38:00;;;;;;;2.70;1.50;;;11.90;99.90;;;;;;4968859;28;20227;-77
2021/03/15 09:40:29;;;;;;;11.73;2.20;;;12.00;99.90;;;;;;4970146;28;20582;-77
2021/03/15 09:42:57;;;;;;;3.37;1.60;;;12.30;99.90;;;;;;4970332;28;20682;-75
2021/03/15 09:45:34;;;;;;;5.93;1.60;;;12.00;99.90;;;;;;4966549;28;20256;-75
2021/03/15 09:48:01;;;;;;;5.63;1.17;;;12.40;99.90;;;;;;4963611;28;20287;-77
2021/03/15 09:50:30;;;;;;;6.60;1.63;;;12.30;99.90;;;;;;4971098;28;20240;-78
2021/03/15 09:53:08;;;;;;;4.73;1.57;;;12.80;99.90;;;;;;4970961;28;20210;-78
2021/03/15 09:55:35;;;;;;;2.90;1.30;;;12.20;99.90;;;;;;4971144;28;20209;-77
2021/03/15 09:58:06;;;;;;;4.90;1.77;;;11.70;99.90;;;;;;4970285;28;20240;-79
2021/03/15 10:00:33;;;;;;;2.87;1.17;;;11.20;99.90;;;;;;4969677;28;20212;-75
2021/03/15 10:03:00;;;;;;;4.63;1.60;;;10.70;99.90;;;;;;4969689;28;20206;-77
2021/03/15 10:05:26;;;;;;;4.80;1.30;;;10.50;99.90;;;;;;4970762;28;20256;-80
2021/03/15 10:07:53;;;;;;;6.27;1.47;;;10.40;99.90;;;;;;4970658;28;20776;-74
2021/03/15 10:10:22;;;;;;;3.13;1.57;;;10.40;99.90;;;;;;4971416;28;20232;-75
2021/03/15 10:12:49;;;;;;;3.43;1.23;;;10.70;99.90;;;;;;4971700;28;20217;-75
2021/03/15 10:15:17;;;;;;;3.10;1.30;;;10.70;99.90;;;;;;4971274;28;20209;-76
2021/03/15 10:17:45;;;;;;;5.83;1.43;;;10.70;99.90;;;;;;4971428;28;20565;-78
2021/03/15 10:20:24;;;;;;;2.97;1.67;;;10.90;99.90;;;;;;4967409;28;20210;-72
2021/03/15 10:22:51;;;;;;;5.13;1.30;;;10.80;99.90;;;;;;4967906;28;20689;-75
2021/03/15 10:25:18;;;;;;;3.20;1.87;;;10.90;99.90;;;;;;4966816;28;20240;-76
2021/03/15 10:27:53;;;;;;;6.03;1.63;;;10.90;99.90;;;;;;4969542;28;20236;-74
2021/03/15 10:30:25;;;;;;;6.93;1.70;;;10.70;99.90;;;;;;4968391;28;20201;-75
2021/03/15 10:32:53;;;;;;;4.47;1.63;;;10.60;99.90;;;;;;4970292;28;20206;-72
2021/03/15 10:35:20;;;;;;;5.50;2.07;;;10.40;99.90;;;;;;4964711;28;20209;-74
2021/03/15 10:37:51;;;;;;;4.33;1.50;;;10.20;99.90;;;;;;4969561;28;20607;-74
2021/03/15 10:40:19;;;;;;;6.80;1.70;;;10.30;99.90;;;;;;4970369;28;20274;-82
2021/03/15 10:42:46;;;;;;;14.23;2.77;;;10.10;99.90;;;;;;4971579;28;20283;-77
2021/03/15 10:45:14;;;;;;;5.60;1.90;;;10.20;99.90;;;;;;4970608;28;20588;-78
2021/03/15 10:47:43;;;;;;;3.40;1.53;;;10.30;99.90;;;;;;4971692;28;20306;-78
2021/03/15 10:50:28;;;;;;;3.30;1.53;;;10.60;99.90;;;;;;4967330;28;20221;-73
2021/03/15 10:52:55;;;;;;;4.83;1.53;;;10.80;99.90;;;;;;4971911;28;20221;-74
2021/03/15 10:55:23;;;;;;;6.13;2.40;;;11.20;99.90;;;;;;4973654;28;20287;-74
2021/03/15 10:58:05;;;;;;;9.30;2.07;;;11.30;99.90;;;;;;4970766;28;20213;-76
2021/03/15 11:00:34;;;;;;;2.80;2.07;;;11.40;99.90;;;;;;4974289;28;20209;-76
2021/03/15 11:03:01;;;;;;;7.07;2.03;;;11.30;99.90;;;;;;4971904;28;20268;-76
2021/03/15 11:05:28;;;;;;;9.77;2.87;;;11.40;99.90;;;;;;4973216;28;20225;-76
2021/03/15 11:07:55;;;;;;;6.13;1.40;;;11.20;99.90;;;;;;4967607;28;20237;-77
2021/03/15 11:10:23;;;;;;;5.10;1.93;;;11.10;99.90;;;;;;4972648;28;20237;-75
2021/03/15 11:12:52;;;;;;;8.30;1.97;;;11.30;99.90;;;;;;4972531;28;20257;-76
2021/03/15 11:15:36;;;;;;;3.70;1.87;;;11.30;99.90;;;;;;4974036;28;20209;-74
2021/03/15 11:18:12;;;;;;;5.10;2.47;;;11.20;99.90;;;;;;4971934;28;20221;-74
2021/03/15 11:20:45;;;;;;;7.43;2.67;;;11.00;99.90;;;;;;4972426;28;20658;-78
2021/03/15 11:23:14;;;;;;;7.73;2.80;;;11.20;99.90;;;;;;4973644;28;20216;-76
2021/03/15 11:25:41;;;;;;;7.83;2.03;;;11.10;99.90;;;;;;4973322;28;20728;-77
2021/03/15 11:28:11;;;;;;;4.37;2.10;;;11.80;99.90;;;;;;4973549;28;20245;-75
2021/03/15 11:30:38;;;;;;;6.87;2.17;;;12.40;99.90;;;;;;4973350;28;20212;-74
2021/03/15 11:33:07;;;;;;;8.07;2.97;;;12.20;99.90;;;;;;4973313;28;20217;-74
2021/03/15 11:35:36;;;;;;;7.80;2.47;;;12.30;99.90;;;;;;4973154;28;20213;-73
2021/03/15 11:38:04;;;;;;;11.20;3.07;;;12.60;99.90;;;;;;4972989;28;20292;-75
2021/03/15 11:40:33;;;;;;;9.53;3.27;;;12.50;99.90;;;;;;4973350;28;20248;-77
2021/03/15 11:43:01;;;;;;;5.70;2.27;;;12.50;99.90;;;;;;4973138;28;20214;-75
2021/03/15 11:45:28;;;;;;;3.37;2.10;;;12.30;99.90;;;;;;4973572;28;20264;-76
2021/03/15 11:47:55;;;;;;;5.40;2.13;;;12.20;99.90;;;;;;4972669;28;20232;-77
2021/03/15 11:50:24;;;;;;;6.23;2.67;;;12.30;99.90;;;;;;4973174;28;20264;-77
2021/03/15 11:52:52;;;;;;;8.93;2.93;;;12.60;99.90;;;;;;4973178;28;20202;-78
2021/03/15 11:55:20;;;;;;;9.20;2.97;;;12.80;99.90;;;;;;4973626;28;20304;-76
2021/03/15 11:57:47;;;;;;;4.03;2.30;;;12.90;99.90;;;;;;4973226;28;20709;-74
2021/03/15 12:00:17;;;;;;;6.00;2.50;;;12.90;99.90;;;;;;4973334;28;20210;-76
2021/03/15 12:02:44;;;;;;;5.00;3.00;;;12.90;99.90;;;;;;4973165;28;20205;-73
2021/03/15 12:05:13;;;;;;;5.57;1.83;;;13.40;99.90;;;;;;4972574;28;20210;-78
2021/03/15 12:07:41;;;;;;;5.95;2.13;;;13.70;99.90;;;;;;4970249;28;20264;-75
2021/03/15 12:10:10;;;;;;;6.00;2.63;;;13.90;99.90;;;;;;4970431;28;20217;-73
2021/03/15 12:12:36;;;;;;;3.67;1.73;;;14.10;99.90;;;;;;4972501;28;20206;-74
2021/03/15 12:15:06;;;;;;;10.20;2.85;;;14.00;99.90;;;;;;4972422;28;20213;-74
2021/03/15 12:17:33;;;;;;;4.55;1.73;;;13.80;99.90;;;;;;4972829;28;20212;-75
2021/03/15 12:19:59;;;;;;;5.47;2.17;;;14.10;99.90;;;;;;4972247;28;20213;-77
2021/03/15 12:22:26;;;;;;;4.80;1.60;;;14.10;99.90;;;;;;4970662;28;20206;-73
2021/03/15 12:24:53;;;;;;;6.68;2.38;;;13.70;99.90;;;;;;4968462;28;20206;-73
2021/03/15 12:27:20;;;;;;;3.75;1.80;;;14.00;99.90;;;;;;4972621;28;20268;-76
2021/03/15 12:29:47;;;;;;;4.95;2.45;;;14.00;99.90;;;;;;4972734;28;20233;-76
2021/03/15 12:32:13;;;;;;;6.35;1.77;;;14.10;99.90;;;;;;4972367;28;20324;-73
2021/03/15 12:34:40;;;;;;;4.55;2.40;;;14.20;99.90;;;;;;4972179;28;20213;-75
2021/03/15 12:37:06;;;;;;;4.97;2.40;;;13.90;99.90;;;;;;4971703;28;20708;-77
2021/03/15 12:39:33;;;;;;;4.22;1.85;;;13.70;99.90;;;;;;4972430;28;20224;-73
2021/03/15 12:42:01;;;;;;;3.70;1.90;;;13.30;99.90;;;;;;4970631;28;20260;-74
2021/03/15 12:44:28;;;;;;;4.78;2.17;;;13.20;99.90;;;;;;4972131;28;20256;-74
2021/03/15 12:46:54;;;;;;;2.85;2.00;;;13.30;99.90;;;;;;4971600;28;20566;-74
2021/03/15 12:49:21;;;;;;;7.50;2.15;;;13.50;99.90;;;;;;4971968;28;20739;-76
2021/03/15 12:51:48;;;;;;;10.07;2.45;;;13.60;99.90;;;;;;4972649;28;20576;-73
2021/03/15 12:54:15;;;;;;;11.93;3.63;;;13.50;99.90;;;;;;4971818;28;20256;-74
2021/03/15 12:56:42;;;;;;;4.97;2.25;;;13.50;99.90;;;;;;4970286;28;20262;-75
2021/03/15 12:59:12;;;;;;;12.00;2.42;;;13.60;99.90;;;;;;4970790;28;20614;-74
2021/03/15 13:01:38;;;;;;;6.70;2.20;;;13.70;99.90;;;;;;4966510;28;20698;-75
2021/03/15 13:04:05;;;;;;;6.40;1.88;;;13.70;99.90;;;;;;4971300;28;20232;-76
2021/03/15 13:06:31;;;;;;;4.55;1.98;;;13.30;99.90;;;;;;4971657;28;20216;-75
2021/03/15 13:08:58;;;;;;;5.45;2.67;;;12.80;99.90;;;;;;4969423;28;20229;-76